Latest Weather Observations for Moomba Airport

IDS60801

Issued at 8:31 am CDT Monday 5 December 2016 (issued every 30 minutes, with the page automatically refreshed every 10 minutes)

About weather observations | Map of weather stations | Latest weather observations for SA | Other Formats
Station Details ID: 017123 Name: MOOMBA AIRPORT Lat: -28.10 Lon: 140.20 Height: 37.8 m
Data from the previous 72 hours. | See also: Recent months at Moomba Airport
Date/Time
CDT
Temp
°C
App
Temp
°C
Dew
Point
°C
Rel
Hum
%
Delta-T
°C
Wind Press
QNH
hPa
Press
MSL
hPa
Rain since
9am
mm
Dir  Spd
km/h
Gust
km/h
Spd
kts
Gust
kts
05/08:30am 34.9 32.4 14.2 28 12.8 N 20 24 11 13 1010.2 1010.0 -
05/08:00am 33.0 30.7 14.1 32 11.6 N 19 20 10 11 1009.8 1009.5 0.0
05/07:30am 32.9 31.5 13.5 30 11.8 N 13 17 7 9 1009.3 1009.0 0.0
05/07:00am 30.7 29.9 13.9 36 10.1 NNE 11 13 6 7 1009.1 1008.8 0.0
05/06:30am 29.2 28.7 13.8 39 9.2 NNE 9 11 5 6 1008.9 1008.6 0.0
05/06:00am 29.4 28.2 11.5 33 10.4 NE 9 11 5 6 1008.2 1007.9 0.0
05/05:30am 29.9 29.4 11.9 33 10.5 ENE 6 9 3 5 1007.9 1007.6 0.0
05/05:00am 30.6 30.1 12.0 32 10.9 SSW 6 7 3 4 1008.0 1007.7 0.0
05/04:30am 30.4 30.2 11.9 32 10.8 W 4 7 2 4 1008.0 1007.7 0.0
05/04:00am 31.1 30.7 12.5 32 11.0 WNW 6 9 3 5 1008.0 1007.7 0.0
05/03:30am 31.6 31.0 12.4 31 11.4 N 7 9 4 5 1008.0 1007.7 0.0
05/03:00am 31.7 30.8 12.5 31 11.4 NW 9 13 5 7 1008.6 1008.3 0.0
05/02:30am 31.8 30.2 11.6 29 11.8 W 11 20 6 11 1008.3 1008.0 0.0
05/02:00am 30.6 29.3 11.1 30 11.3 NNW 9 11 5 6 1007.8 1007.5 0.0
05/01:30am 31.6 30.7 11.4 29 11.8 WNW 7 9 4 5 1007.5 1007.2 0.0
05/01:00am 31.7 31.7 11.0 28 12.0 W 2 11 1 6 1007.9 1007.6 0.0
05/12:30am 31.2 30.1 10.5 28 11.9 SSW 7 7 4 4 1008.0 1007.7 0.0
05/12:00am 30.5 29.4 9.9 28 11.7 SW 6 7 3 4 1008.3 1008.0 0.0
 
Date/Time
CDT
Temp
°C
App
Temp
°C
Dew
Point
°C
Rel
Hum
%
Delta-T
°C
Wind Press
QNH
hPa
Press
MSL
hPa
Rain since
9am
mm
Dir  Spd
km/h
Gust
km/h
Spd
kts
Gust
kts
04/11:30pm 31.5 30.5 10.2 27 12.2 WSW 6 7 3 4 1008.5 1008.2 0.0
04/11:00pm 32.4 30.1 10.4 26 12.7 W 13 17 7 9 1008.7 1008.4 0.0
04/10:30pm 32.6 30.3 10.6 26 12.7 W 13 15 7 8 1008.3 1008.0 0.0
04/10:00pm 33.7 31.4 10.3 24 13.5 WSW 13 17 7 9 1008.0 1007.7 0.0
04/09:30pm 34.8 31.8 10.6 23 14.2 WSW 17 20 9 11 1007.6 1007.3 0.0
04/09:00pm 35.3 32.2 10.4 22 14.6 WSW 17 22 9 12 1007.2 1006.9 0.0
04/08:30pm 36.3 31.9 10.5 21 15.2 WSW 24 28 13 15 1006.7 1006.4 0.0
04/08:00pm 37.0 31.8 10.3 20 15.7 W 28 37 15 20 1006.2 1005.9 0.0
04/07:30pm 37.7 31.1 10.1 19 16.2 WSW 35 46 19 25 1005.5 1005.2 0.0
04/07:00pm 38.6 31.6 10.0 18 16.8 W 37 50 20 27 1005.0 1004.7 0.0
04/06:30pm 39.6 31.2 9.1 16 17.8 W 43 54 23 29 1004.4 1004.1 0.0
04/06:00pm 40.2 31.4 9.6 16 18.1 WSW 46 57 25 31 1003.9 1003.6 0.0
04/05:52pm 40.8 33.6 9.1 15 18.6 W 37 57 20 31 1003.7 1003.4 0.0
04/05:51pm 41.0 33.8 9.2 15 18.7 W 37 50 20 27 1003.8 1003.5 0.0
04/05:30pm 41.9 35.4 8.9 14 19.4 NW 33 44 18 24 1003.8 1003.5 0.0
04/05:00pm 42.4 34.6 8.2 13 19.9 WNW 39 52 21 28 1003.7 1003.4 0.0
04/04:44pm 43.0 35.4 7.5 12 20.5 NW 37 56 20 30 1003.7 1003.4 0.0
04/04:30pm 43.4 36.9 9.0 13 20.4 WNW 33 50 18 27 1003.8 1003.5 0.0
04/04:03pm 43.1 36.8 8.8 13 20.2 WNW 32 50 17 27 1004.1 1003.8 0.0
04/04:00pm 42.9 35.9 8.6 13 20.1 WNW 35 50 19 27 1004.1 1003.8 0.0
04/03:35pm 42.0 36.0 10.0 15 19.1 NW 32 50 17 27 1004.4 1004.1 0.0
04/03:30pm 42.1 35.6 9.1 14 19.5 NW 33 48 18 26 1004.4 1004.1 0.0
04/03:00pm 42.6 34.7 9.5 14 19.7 NW 41 67 22 36 1004.5 1004.2 0.0
04/02:54pm 43.5 36.7 9.1 13 20.4 NW 35 67 19 36 1004.5 1004.2 0.0
04/02:30pm 43.4 35.4 9.0 13 20.4 NW 41 54 22 29 1004.8 1004.5 0.0
04/02:12pm 44.3 36.6 8.5 12 21.1 NW 39 61 21 33 1004.7 1004.4 0.0
04/02:00pm 43.7 36.5 9.2 13 20.5 NW 37 50 20 27 1005.0 1004.7 0.0
04/01:30pm 43.2 35.8 9.9 14 20.0 NNW 39 54 21 29 1005.6 1005.3 0.0
04/01:08pm 43.7 37.2 10.3 14 20.1 NNW 35 52 19 28 1005.7 1005.4 0.0
04/01:05pm 43.2 36.2 9.9 14 19.9 NNW 37 57 20 31 1005.8 1005.5 0.0
04/01:00pm 43.4 36.4 10.1 14 20.0 N 37 57 20 31 1006.0 1005.7 0.0
04/12:42pm 43.9 38.4 10.5 14 20.2 NNW 30 57 16 31 1006.1 1005.8 0.0
04/12:30pm 42.6 36.1 10.5 15 19.3 N 35 44 19 24 1006.4 1006.1 0.0
04/12:00pm 42.2 36.2 10.2 15 19.2 N 32 41 17 22 1006.7 1006.4 0.0
04/11:30am 41.8 34.4 9.9 15 19.0 N 39 50 21 27 1007.2 1006.9 0.0
04/11:09am 41.7 34.3 9.8 15 18.9 N 39 57 21 31 1007.5 1007.2 0.0
04/11:00am 41.5 33.7 9.6 15 18.9 N 41 56 22 30 1007.5 1007.2 0.0
04/10:53am 40.9 33.0 9.2 15 18.6 N 41 59 22 32 1007.7 1007.4 0.0
04/10:30am 40.7 32.5 8.0 14 18.9 N 41 52 22 28 1007.8 1007.5 0.0
04/10:00am 40.9 34.4 8.1 14 18.9 N 32 43 17 23 1007.7 1007.4 0.0
04/09:30am 39.9 34.2 8.4 15 18.2 NNE 28 39 15 21 1007.6 1007.3 0.0
04/09:00am 38.1 33.1 7.9 16 17.2 NE 24 30 13 16 1007.7 1007.4 0.0
04/08:30am 36.3 31.5 7.4 17 16.2 NE 22 28 12 15 1007.7 1007.4 0.0
04/08:00am 34.9 30.8 7.9 19 15.1 ENE 19 28 10 15 1007.5 1007.2 0.0
04/07:30am 33.0 31.0 8.5 22 13.8 ENE 9 13 5 7 1007.4 1007.1 0.0
04/07:00am 30.6 28.5 8.3 25 12.3 ENE 9 11 5 6 1007.1 1006.8 0.0
04/06:30am 29.9 27.7 7.8 25 12.1 ENE 9 17 5 9 1007.0 1006.7 0.0
04/06:00am 30.2 26.5 8.0 25 12.2 ENE 17 20 9 11 1006.7 1006.4 0.0
04/05:30am 30.7 26.6 7.8 24 12.6 ENE 19 24 10 13 1006.6 1006.3 0.0
04/05:00am 30.9 26.0 8.6 25 12.4 ENE 24 30 13 16 1006.5 1006.2 0.0
04/04:30am 31.5 27.4 8.5 24 12.8 ENE 20 24 11 13 1006.9 1006.6 0.0
04/04:00am 31.9 27.7 8.2 23 13.2 ENE 20 26 11 14 1007.0 1006.7 0.0
04/03:30am 31.3 27.5 8.9 25 12.6 ENE 19 24 10 13 1006.7 1006.4 0.0
04/03:00am 31.2 28.0 10.0 27 12.1 E 17 20 9 11 1006.5 1006.2 0.0
04/02:30am 32.3 28.8 10.9 27 12.4 E 20 26 11 14 1006.6 1006.3 0.0
04/02:00am 32.5 29.1 11.1 27 12.5 E 20 24 11 13 1006.6 1006.3 0.0
04/01:30am 33.5 29.4 11.4 26 13.0 E 24 28 13 15 1006.6 1006.3 0.0
04/01:00am 33.3 30.4 12.3 28 12.5 ESE 19 24 10 13 1007.5 1007.2 0.0
04/12:30am 33.5 30.8 13.0 29 12.4 E 19 28 10 15 1009.3 1009.0 0.0
04/12:00am 34.0 32.1 11.8 26 13.2 ESE 13 15 7 8 1010.1 1009.9 0.0
 
Date/Time
CDT
Temp
°C
App
Temp
°C
Dew
Point
°C
Rel
Hum
%
Delta-T
°C
Wind Press
QNH
hPa
Press
MSL
hPa
Rain since
9am
mm
Dir  Spd
km/h
Gust
km/h
Spd
kts
Gust
kts
03/11:30pm 34.4 32.4 11.5 25 13.5 S 13 15 7 8 1009.9 1009.6 0.0
03/11:00pm 34.3 31.3 12.0 25 13.3 W 19 24 10 13 1010.9 1010.7 0.0
03/10:30pm 33.8 31.4 12.7 27 12.7 WNW 17 22 9 12 1011.3 1011.1 0.0
03/10:00pm 33.3 31.1 13.4 30 12.0 WNW 17 20 9 11 1010.6 1010.4 0.0
03/09:30pm 33.7 29.4 12.1 27 12.9 NNW 26 35 14 19 1010.6 1010.4 0.0
03/09:00pm 35.0 27.9 10.8 23 14.2 NNW 39 50 21 27 1009.9 1009.6 0.0
03/08:47pm 35.6 30.5 10.6 22 14.6 NW 28 48 15 26 1009.8 1009.5 0.0
03/08:44pm 35.2 30.4 10.3 22 14.5 NW 26 37 14 20 1009.9 1009.6 0.0
03/08:30pm 34.3 27.3 13.7 29 12.6 NNW 43 59 23 32 1009.9 1009.6 0.0
03/08:19pm 34.6 27.5 13.4 28 12.9 NNW 43 69 23 37 1009.7 1009.4 0.0
03/08:14pm 34.6 28.1 14.0 29 12.6 NNW 41 57 22 31 1010.0 1009.8 0.0
03/08:08pm 36.1 31.5 12.3 24 14.3 N 28 48 15 26 1009.9 1009.6 0.0
03/08:05pm 38.0 33.7 6.9 15 17.4 NE 19 43 10 23 1009.5 1009.2 0.0
03/08:00pm 37.7 34.4 6.6 15 17.3 SE 13 24 7 13 1008.6 1008.3 0.0
03/07:30pm 38.4 32.6 6.2 14 17.9 SSE 26 37 14 20 1006.5 1006.2 0.0
03/07:05pm 39.8 32.3 6.2 13 18.8 SSE 35 44 19 24 1006.0 1005.7 0.0
03/07:00pm 39.7 32.2 6.1 13 18.7 SSE 35 52 19 28 1005.8 1005.5 0.0
03/06:40pm 40.6 33.1 4.4 11 19.8 SSE 33 48 18 26 1005.2 1004.9 0.0
03/06:30pm 41.7 35.5 2.4 9 21.0 SSE 24 37 13 20 1005.1 1004.8 0.0
03/06:00pm 42.3 37.5 2.8 9 21.3 S 17 28 9 15 1004.9 1004.6 0.0
03/05:30pm 43.3 38.8 1.9 8 22.2 S 15 24 8 13 1005.1 1004.8 0.0
03/05:00pm 42.9 39.1 1.6 8 21.9 S 11 17 6 9 1005.5 1005.2 0.0
03/04:30pm 42.1 38.6 1.1 8 21.6 SSE 9 13 5 7 1005.7 1005.4 0.0
03/04:00pm 42.0 38.8 1.0 8 21.5 S 7 13 4 7 1006.0 1005.7 0.0
03/03:30pm 42.0 39.0 1.0 8 21.5 NNW 6 11 3 6 1006.2 1005.9 0.0
03/03:00pm 42.1 37.4 1.1 8 21.6 NNE 15 24 8 13 1006.4 1006.1 0.0
03/02:30pm 42.7 39.5 3.1 9 21.5 N 9 17 5 9 1006.7 1006.4 0.0
03/02:00pm 43.9 41.3 4.0 9 22.0 NW 7 13 4 7 1007.0 1006.7 0.0
03/01:30pm 42.1 39.4 2.7 9 21.2 NNE 6 13 3 7 1007.4 1007.1 0.0
03/01:00pm 42.4 39.2 2.9 9 21.3 NNW 9 19 5 10 1007.7 1007.4 0.0
03/12:30pm 41.2 35.9 2.0 9 20.8 NNW 19 28 10 15 1008.1 1007.8 0.0
03/12:00pm 41.9 37.9 2.6 9 21.1 N 13 20 7 11 1008.2 1007.9 0.0
03/11:30am 40.5 36.5 3.0 10 20.1 N 13 20 7 11 1008.5 1008.2 0.0
03/11:00am 40.8 36.5 3.2 10 20.2 NNE 15 22 8 12 1008.8 1008.5 0.0
03/10:30am 39.2 34.2 3.4 11 19.2 N 19 22 10 12 1009.1 1008.8 0.0
03/10:00am 38.6 33.1 4.1 12 18.6 NE 22 30 12 16 1009.0 1008.7 0.0
03/09:30am 35.7 31.0 3.0 13 17.1 NE 17 20 9 11 1009.5 1009.2 0.0
03/09:00am 33.5 29.4 4.2 16 15.4 NE 15 20 8 11 1009.5 1009.2 0.0
03/08:30am 31.9 28.8 3.8 17 14.5 NNE 9 19 5 10 1009.5 1009.2 0.0
03/08:00am 31.3 26.8 4.2 18 14.0 NE 17 22 9 12 1009.3 1009.0 0.0
03/07:30am 30.5 25.6 4.3 19 13.6 ENE 19 22 10 12 1008.4 1008.1 0.0
03/07:00am 29.0 24.9 4.5 21 12.6 ENE 15 17 8 9 1008.1 1007.8 0.0
03/06:30am 28.8 25.1 4.3 21 12.5 E 13 15 7 8 1007.9 1007.6 0.0
03/06:00am 27.9 24.2 4.2 22 12.0 ENE 13 19 7 10 1007.7 1007.4 0.0
03/05:30am 28.5 25.5 4.1 21 12.4 E 9 13 5 7 1007.7 1007.4 0.0
03/05:00am 28.9 24.8 4.4 21 12.5 ESE 15 17 8 9 1007.4 1007.1 0.0
03/04:30am 29.0 25.3 4.5 21 12.6 ESE 13 17 7 9 1007.2 1006.9 0.0
03/04:00am 28.6 25.3 4.8 22 12.3 ESE 11 13 6 7 1007.2 1006.9 0.0
03/03:30am 27.5 24.5 3.9 22 11.9 E 9 11 5 6 1007.1 1006.8 0.0
03/03:00am 28.1 24.6 3.7 21 12.3 E 11 13 6 7 1007.0 1006.7 0.0
03/02:30am 28.5 24.7 4.1 21 12.4 ESE 13 15 7 8 1007.1 1006.8 0.0
03/02:00am 28.1 24.6 3.7 21 12.3 ESE 11 13 6 7 1007.4 1007.1 0.0
03/01:30am 28.8 24.9 3.6 20 12.8 ESE 13 13 7 7 1007.4 1007.1 0.0
03/01:00am 30.0 26.2 3.9 19 13.3 ESE 13 15 7 8 1007.7 1007.4 0.0
03/12:30am 31.2 27.4 4.1 18 14.0 ESE 13 17 7 9 1007.9 1007.6 0.0
03/12:00am 32.3 28.0 3.3 16 14.9 SE 15 22 8 12 1008.0 1007.7 0.0
 
Date/Time
CDT
Temp
°C
App
Temp
°C
Dew
Point
°C
Rel
Hum
%
Delta-T
°C
Wind Press
QNH
hPa
Press
MSL
hPa
Rain since
9am
mm
Dir  Spd
km/h
Gust
km/h
Spd
kts
Gust
kts
02/11:30pm 33.0 27.7 2.9 15 15.4 SE 20 28 11 15 1007.9 1007.6 0.0
02/11:00pm 33.8 28.6 2.6 14 16.0 SE 19 24 10 13 1007.8 1007.5 0.0
02/10:30pm 34.0 28.9 2.8 14 16.1 SSE 19 24 10 13 1007.7 1007.4 0.0
02/10:00pm 34.1 29.5 1.8 13 16.4 S 15 19 8 10 1007.4 1007.1 0.0
02/09:30pm 34.9 30.6 1.3 12 17.0 S 13 17 7 9 1007.1 1006.8 0.0
02/09:00pm 35.5 31.7 1.8 12 17.2 SSE 11 13 6 7 1006.9 1006.6 0.0
02/08:30pm 35.5 32.1 1.8 12 17.2 SE 9 13 5 7 1006.9 1006.6 0.0
02/08:00pm 36.4 32.9 1.2 11 17.9 SE 9 13 5 7 1006.6 1006.3 0.0
02/07:30pm 37.5 32.4 0.7 10 18.7 SSE 17 20 9 11 1006.5 1006.2 0.0
02/07:00pm 37.7 32.2 0.9 10 18.8 SE 19 26 10 14 1006.4 1006.1 0.0
02/06:30pm 38.6 32.7 1.6 10 19.2 SE 22 33 12 18 1006.4 1006.1 0.0
02/06:00pm 38.3 31.6 1.3 10 19.1 SSE 26 35 14 19 1006.4 1006.1 0.0
02/05:30pm 39.5 33.5 0.8 9 20.0 SSE 22 30 12 16 1006.4 1006.1 0.0
02/05:00pm 39.4 33.7 0.7 9 19.9 SSE 20 32 11 17 1006.2 1005.9 0.0
02/04:30pm 39.7 33.5 2.4 10 19.7 SSE 24 35 13 19 1006.1 1005.8 0.0
02/04:00pm 39.6 31.7 0.9 9 20.0 SSE 32 43 17 23 1006.2 1005.9 0.0
02/03:30pm 40.3 33.2 1.4 9 20.3 SSE 28 37 15 20 1006.5 1006.2 0.0
02/03:00pm 39.9 33.1 1.1 9 20.1 S 26 39 14 21 1006.8 1006.5 0.0
02/02:30pm 39.6 32.4 0.9 9 20.0 S 28 43 15 23 1006.8 1006.5 0.0
02/02:08pm 39.8 32.6 1.0 9 20.1 S 28 48 15 26 1006.7 1006.4 0.0
02/02:00pm 40.2 33.9 1.3 9 20.2 S 24 37 13 20 1007.0 1006.7 0.0
02/01:30pm 40.0 33.2 1.1 9 20.2 SSE 26 37 14 20 1006.9 1006.6 0.0
02/01:00pm 39.1 32.3 0.5 9 19.7 S 26 37 14 20 1007.0 1006.7 0.0
02/12:30pm 38.8 32.3 0.3 9 19.6 S 24 35 13 19 1007.1 1006.8 0.0
02/12:00pm 37.9 31.5 1.0 10 18.9 S 24 39 13 21 1007.1 1006.8 0.0
02/11:30am 36.8 31.2 1.5 11 18.1 SSW 20 30 11 16 1007.5 1007.2 0.0
02/11:00am 36.0 31.3 0.9 11 17.7 SSW 15 20 8 11 1007.2 1006.9 0.0
02/10:30am 36.0 30.5 0.9 11 17.8 SSW 19 26 10 14 1007.1 1006.8 0.0
02/10:00am 36.5 33.0 -1.4 9 18.5 NNE 7 11 4 6 1006.5 1006.2 0.0
02/09:30am 33.9 29.5 0.5 12 16.6 E 13 19 7 10 1006.2 1005.9 0.0
02/09:00am 31.7 27.5 1.9 15 14.9 ESE 13 15 7 8 1006.6 1006.3 0.2

Other Formats:

Comma delimited format used in spreadsheet applications
http://www.bom.gov.au/fwo/IDS60801/IDS60801.95481.axf

JavaScript Object Notation format (JSON) in row-major order
http://www.bom.gov.au/fwo/IDS60801/IDS60801.95481.json